sensor_id;sensor_type;location;lat;lon;timestamp;P1;durP1;ratioP1;P2;durP2;ratioP2
20411;SDS011;10365;52.578;8.138;2022-10-23T00:01:49;12.77;;;6.75;;
20411;SDS011;10365;52.578;8.138;2022-10-23T00:04:22;20.88;;;7.32;;
20411;SDS011;10365;52.578;8.138;2022-10-23T00:06:49;20.15;;;7.63;;
20411;SDS011;10365;52.578;8.138;2022-10-23T00:09:16;15.88;;;7.22;;
20411;SDS011;10365;52.578;8.138;2022-10-23T00:11:42;14.93;;;7.00;;
20411;SDS011;10365;52.578;8.138;2022-10-23T00:14:08;16.33;;;7.88;;
20411;SDS011;10365;52.578;8.138;2022-10-23T00:16:34;21.13;;;8.60;;
20411;SDS011;10365;52.578;8.138;2022-10-23T00:19:00;15.18;;;7.50;;
20411;SDS011;10365;52.578;8.138;2022-10-23T00:21:25;12.95;;;6.97;;
20411;SDS011;10365;52.578;8.138;2022-10-23T00:23:51;13.13;;;7.30;;
20411;SDS011;10365;52.578;8.138;2022-10-23T00:26:16;10.98;;;6.65;;
20411;SDS011;10365;52.578;8.138;2022-10-23T00:28:42;13.77;;;6.95;;
20411;SDS011;10365;52.578;8.138;2022-10-23T00:31:07;17.48;;;7.90;;
20411;SDS011;10365;52.578;8.138;2022-10-23T00:33:33;20.17;;;8.40;;
20411;SDS011;10365;52.578;8.138;2022-10-23T00:35:58;15.40;;;8.25;;
20411;SDS011;10365;52.578;8.138;2022-10-23T00:38:23;26.25;;;8.63;;
20411;SDS011;10365;52.578;8.138;2022-10-23T00:40:49;22.02;;;8.60;;
20411;SDS011;10365;52.578;8.138;2022-10-23T00:43:16;18.77;;;9.05;;
20411;SDS011;10365;52.578;8.138;2022-10-23T00:45:42;25.55;;;9.55;;
20411;SDS011;10365;52.578;8.138;2022-10-23T00:48:08;24.55;;;9.93;;
20411;SDS011;10365;52.578;8.138;2022-10-23T00:50:34;17.38;;;9.90;;
20411;SDS011;10365;52.578;8.138;2022-10-23T00:53:01;19.05;;;8.95;;
20411;SDS011;10365;52.578;8.138;2022-10-23T00:55:26;20.83;;;9.10;;
20411;SDS011;10365;52.578;8.138;2022-10-23T00:57:52;18.55;;;9.73;;
20411;SDS011;10365;52.578;8.138;2022-10-23T01:00:19;18.70;;;9.15;;
20411;SDS011;10365;52.578;8.138;2022-10-23T01:02:45;21.42;;;9.77;;
20411;SDS011;10365;52.578;8.138;2022-10-23T01:05:11;17.50;;;8.93;;
20411;SDS011;10365;52.578;8.138;2022-10-23T01:07:41;22.75;;;9.27;;
20411;SDS011;10365;52.578;8.138;2022-10-23T01:10:22;16.45;;;8.98;;
20411;SDS011;10365;52.578;8.138;2022-10-23T01:12:50;16.35;;;9.07;;
20411;SDS011;10365;52.578;8.138;2022-10-23T01:15:20;23.45;;;9.80;;
20411;SDS011;10365;52.578;8.138;2022-10-23T01:21:27;19.10;;;7.90;;
20411;SDS011;10365;52.578;8.138;2022-10-23T01:28:19;22.42;;;8.98;;
20411;SDS011;10365;52.578;8.138;2022-10-23T01:30:48;14.88;;;9.18;;
20411;SDS011;10365;52.578;8.138;2022-10-23T01:33:17;18.85;;;9.48;;
20411;SDS011;10365;52.578;8.138;2022-10-23T01:35:52;18.58;;;9.00;;
20411;SDS011;10365;52.578;8.138;2022-10-23T01:38:27;15.30;;;8.98;;
20411;SDS011;10365;52.578;8.138;2022-10-23T01:40:59;15.18;;;8.80;;
20411;SDS011;10365;52.578;8.138;2022-10-23T01:43:36;18.63;;;8.85;;
20411;SDS011;10365;52.578;8.138;2022-10-23T01:46:05;17.13;;;8.35;;
20411;SDS011;10365;52.578;8.138;2022-10-23T01:48:35;18.45;;;8.77;;
20411;SDS011;10365;52.578;8.138;2022-10-23T01:51:05;16.35;;;8.75;;
20411;SDS011;10365;52.578;8.138;2022-10-23T01:53:33;15.60;;;7.90;;
20411;SDS011;10365;52.578;8.138;2022-10-23T01:56:00;18.08;;;8.80;;
20411;SDS011;10365;52.578;8.138;2022-10-23T01:58:26;17.52;;;9.15;;
20411;SDS011;10365;52.578;8.138;2022-10-23T02:00:54;16.30;;;7.80;;
20411;SDS011;10365;52.578;8.138;2022-10-23T02:03:21;13.70;;;7.72;;
20411;SDS011;10365;52.578;8.138;2022-10-23T02:05:47;15.30;;;7.25;;
20411;SDS011;10365;52.578;8.138;2022-10-23T02:08:13;16.25;;;7.15;;
20411;SDS011;10365;52.578;8.138;2022-10-23T02:10:41;15.00;;;7.18;;
20411;SDS011;10365;52.578;8.138;2022-10-23T02:13:18;17.90;;;7.35;;
20411;SDS011;10365;52.578;8.138;2022-10-23T02:20:40;13.38;;;7.10;;
20411;SDS011;10365;52.578;8.138;2022-10-23T02:25:36;21.25;;;7.78;;
20411;SDS011;10365;52.578;8.138;2022-10-23T02:28:05;12.55;;;6.25;;
20411;SDS011;10365;52.578;8.138;2022-10-23T02:30:39;14.68;;;6.20;;
20411;SDS011;10365;52.578;8.138;2022-10-23T02:33:08;12.82;;;6.15;;
20411;SDS011;10365;52.578;8.138;2022-10-23T02:35:34;15.45;;;6.43;;
20411;SDS011;10365;52.578;8.138;2022-10-23T02:40:53;11.90;;;5.25;;
20411;SDS011;10365;52.578;8.138;2022-10-23T02:43:22;16.30;;;5.85;;
20411;SDS011;10365;52.578;8.138;2022-10-23T02:45:52;15.55;;;5.63;;
20411;SDS011;10365;52.578;8.138;2022-10-23T02:48:24;9.52;;;5.03;;
20411;SDS011;10365;52.578;8.138;2022-10-23T02:51:11;15.13;;;6.30;;
20411;SDS011;10365;52.578;8.138;2022-10-23T02:56:20;9.95;;;5.63;;
20411;SDS011;10365;52.578;8.138;2022-10-23T02:58:51;13.88;;;6.13;;
20411;SDS011;10365;52.578;8.138;2022-10-23T03:01:28;9.60;;;5.40;;
20411;SDS011;10365;52.578;8.138;2022-10-23T03:03:57;12.82;;;5.55;;
20411;SDS011;10365;52.578;8.138;2022-10-23T03:06:24;11.35;;;5.55;;
20411;SDS011;10365;52.578;8.138;2022-10-23T03:08:53;9.25;;;5.65;;
20411;SDS011;10365;52.578;8.138;2022-10-23T03:11:19;8.50;;;5.10;;
20411;SDS011;10365;52.578;8.138;2022-10-23T03:13:45;15.50;;;6.22;;
20411;SDS011;10365;52.578;8.138;2022-10-23T03:16:10;12.68;;;5.63;;
20411;SDS011;10365;52.578;8.138;2022-10-23T03:18:35;11.65;;;6.10;;
20411;SDS011;10365;52.578;8.138;2022-10-23T03:21:01;10.63;;;5.57;;
20411;SDS011;10365;52.578;8.138;2022-10-23T03:23:27;10.18;;;5.55;;
20411;SDS011;10365;52.578;8.138;2022-10-23T03:25:53;16.85;;;5.93;;
20411;SDS011;10365;52.578;8.138;2022-10-23T03:28:40;20.58;;;6.80;;
20411;SDS011;10365;52.578;8.138;2022-10-23T03:31:06;11.63;;;5.47;;
20411;SDS011;10365;52.578;8.138;2022-10-23T03:33:31;16.15;;;6.55;;
20411;SDS011;10365;52.578;8.138;2022-10-23T03:36:05;19.33;;;7.35;;
20411;SDS011;10365;52.578;8.138;2022-10-23T03:38:31;9.68;;;6.68;;
20411;SDS011;10365;52.578;8.138;2022-10-23T03:40:56;14.20;;;5.95;;
20411;SDS011;10365;52.578;8.138;2022-10-23T03:43:22;15.40;;;5.82;;
20411;SDS011;10365;52.578;8.138;2022-10-23T03:45:47;15.32;;;6.88;;
20411;SDS011;10365;52.578;8.138;2022-10-23T03:48:14;18.92;;;6.70;;
20411;SDS011;10365;52.578;8.138;2022-10-23T03:50:40;13.35;;;5.97;;
20411;SDS011;10365;52.578;8.138;2022-10-23T03:53:05;17.25;;;6.35;;
20411;SDS011;10365;52.578;8.138;2022-10-23T03:55:32;17.95;;;6.78;;
20411;SDS011;10365;52.578;8.138;2022-10-23T03:57:57;19.65;;;6.95;;
20411;SDS011;10365;52.578;8.138;2022-10-23T04:00:23;14.43;;;7.18;;
20411;SDS011;10365;52.578;8.138;2022-10-23T04:02:48;14.57;;;6.97;;
20411;SDS011;10365;52.578;8.138;2022-10-23T04:05:14;13.48;;;6.68;;
20411;SDS011;10365;52.578;8.138;2022-10-23T04:07:49;13.98;;;7.15;;
20411;SDS011;10365;52.578;8.138;2022-10-23T04:10:14;17.27;;;6.50;;
20411;SDS011;10365;52.578;8.138;2022-10-23T04:12:39;16.75;;;6.28;;
20411;SDS011;10365;52.578;8.138;2022-10-23T04:15:05;12.60;;;6.82;;
20411;SDS011;10365;52.578;8.138;2022-10-23T04:17:30;18.52;;;6.82;;
20411;SDS011;10365;52.578;8.138;2022-10-23T04:19:55;10.73;;;7.13;;
20411;SDS011;10365;52.578;8.138;2022-10-23T04:22:21;24.40;;;7.10;;
20411;SDS011;10365;52.578;8.138;2022-10-23T04:24:46;17.60;;;7.60;;
20411;SDS011;10365;52.578;8.138;2022-10-23T04:27:16;12.90;;;6.38;;
20411;SDS011;10365;52.578;8.138;2022-10-23T04:29:41;16.58;;;7.43;;
20411;SDS011;10365;52.578;8.138;2022-10-23T04:32:07;14.30;;;7.55;;
20411;SDS011;10365;52.578;8.138;2022-10-23T04:34:32;15.68;;;7.53;;
20411;SDS011;10365;52.578;8.138;2022-10-23T04:36:57;19.02;;;7.15;;
20411;SDS011;10365;52.578;8.138;2022-10-23T04:39:23;18.40;;;7.22;;
20411;SDS011;10365;52.578;8.138;2022-10-23T04:41:48;16.80;;;7.57;;
20411;SDS011;10365;52.578;8.138;2022-10-23T04:44:13;14.75;;;7.35;;
20411;SDS011;10365;52.578;8.138;2022-10-23T04:46:39;17.15;;;6.90;;
20411;SDS011;10365;52.578;8.138;2022-10-23T04:49:04;19.73;;;7.32;;
20411;SDS011;10365;52.578;8.138;2022-10-23T04:52:08;15.30;;;7.53;;
20411;SDS011;10365;52.578;8.138;2022-10-23T04:54:52;12.82;;;7.38;;
20411;SDS011;10365;52.578;8.138;2022-10-23T04:57:21;12.43;;;6.95;;
20411;SDS011;10365;52.578;8.138;2022-10-23T05:00:12;16.02;;;7.15;;
20411;SDS011;10365;52.578;8.138;2022-10-23T05:02:46;17.55;;;7.63;;
20411;SDS011;10365;52.578;8.138;2022-10-23T05:05:14;11.75;;;6.60;;
20411;SDS011;10365;52.578;8.138;2022-10-23T05:08:14;14.60;;;6.88;;
20411;SDS011;10365;52.578;8.138;2022-10-23T05:10:55;13.00;;;6.28;;
20411;SDS011;10365;52.578;8.138;2022-10-23T05:13:21;14.32;;;6.68;;
20411;SDS011;10365;52.578;8.138;2022-10-23T05:15:47;14.25;;;6.60;;
20411;SDS011;10365;52.578;8.138;2022-10-23T05:20:44;13.65;;;6.32;;
20411;SDS011;10365;52.578;8.138;2022-10-23T05:23:09;20.38;;;6.75;;
20411;SDS011;10365;52.578;8.138;2022-10-23T05:25:36;15.95;;;6.68;;
20411;SDS011;10365;52.578;8.138;2022-10-23T05:28:13;21.30;;;7.22;;
20411;SDS011;10365;52.578;8.138;2022-10-23T05:30:39;17.52;;;7.25;;
20411;SDS011;10365;52.578;8.138;2022-10-23T05:33:04;18.77;;;6.53;;
20411;SDS011;10365;52.578;8.138;2022-10-23T05:35:36;18.33;;;7.30;;
20411;SDS011;10365;52.578;8.138;2022-10-23T05:38:01;15.63;;;7.78;;
20411;SDS011;10365;52.578;8.138;2022-10-23T05:40:27;14.88;;;6.38;;
20411;SDS011;10365;52.578;8.138;2022-10-23T05:42:58;15.95;;;7.78;;
20411;SDS011;10365;52.578;8.138;2022-10-23T05:45:34;15.82;;;7.57;;
20411;SDS011;10365;52.578;8.138;2022-10-23T05:48:38;16.00;;;6.88;;
20411;SDS011;10365;52.578;8.138;2022-10-23T05:51:08;18.63;;;6.97;;
20411;SDS011;10365;52.578;8.138;2022-10-23T05:53:50;16.20;;;6.80;;
20411;SDS011;10365;52.578;8.138;2022-10-23T05:56:39;12.00;;;6.53;;
20411;SDS011;10365;52.578;8.138;2022-10-23T05:59:18;13.32;;;6.93;;
20411;SDS011;10365;52.578;8.138;2022-10-23T06:02:02;13.70;;;6.18;;
20411;SDS011;10365;52.578;8.138;2022-10-23T06:04:50;14.73;;;6.03;;
20411;SDS011;10365;52.578;8.138;2022-10-23T06:07:16;14.75;;;5.95;;
20411;SDS011;10365;52.578;8.138;2022-10-23T06:09:43;13.02;;;5.88;;
20411;SDS011;10365;52.578;8.138;2022-10-23T06:12:09;13.88;;;6.43;;
20411;SDS011;10365;52.578;8.138;2022-10-23T06:14:34;14.23;;;6.00;;
20411;SDS011;10365;52.578;8.138;2022-10-23T06:17:00;11.45;;;6.05;;
20411;SDS011;10365;52.578;8.138;2022-10-23T06:19:25;13.95;;;5.55;;
20411;SDS011;10365;52.578;8.138;2022-10-23T06:21:54;13.95;;;5.82;;
20411;SDS011;10365;52.578;8.138;2022-10-23T06:24:27;7.68;;;5.10;;
20411;SDS011;10365;52.578;8.138;2022-10-23T06:26:57;10.77;;;5.18;;
20411;SDS011;10365;52.578;8.138;2022-10-23T06:29:37;12.95;;;4.93;;
20411;SDS011;10365;52.578;8.138;2022-10-23T06:32:03;10.35;;;5.25;;
20411;SDS011;10365;52.578;8.138;2022-10-23T06:34:28;14.55;;;6.10;;
20411;SDS011;10365;52.578;8.138;2022-10-23T06:36:53;9.75;;;5.30;;
20411;SDS011;10365;52.578;8.138;2022-10-23T06:39:48;9.93;;;5.43;;
20411;SDS011;10365;52.578;8.138;2022-10-23T06:42:13;11.77;;;5.68;;
20411;SDS011;10365;52.578;8.138;2022-10-23T06:45:05;15.85;;;7.30;;
20411;SDS011;10365;52.578;8.138;2022-10-23T06:47:42;18.60;;;6.68;;
20411;SDS011;10365;52.578;8.138;2022-10-23T06:50:13;15.73;;;6.38;;
20411;SDS011;10365;52.578;8.138;2022-10-23T06:52:39;15.98;;;6.30;;
20411;SDS011;10365;52.578;8.138;2022-10-23T06:55:04;13.05;;;6.50;;
20411;SDS011;10365;52.578;8.138;2022-10-23T06:57:33;16.75;;;7.00;;
20411;SDS011;10365;52.578;8.138;2022-10-23T06:59:58;16.35;;;7.35;;
20411;SDS011;10365;52.578;8.138;2022-10-23T07:02:25;15.32;;;7.18;;
20411;SDS011;10365;52.578;8.138;2022-10-23T07:04:50;11.95;;;6.53;;
20411;SDS011;10365;52.578;8.138;2022-10-23T07:07:18;12.45;;;6.63;;
20411;SDS011;10365;52.578;8.138;2022-10-23T07:09:46;13.75;;;6.60;;
20411;SDS011;10365;52.578;8.138;2022-10-23T07:12:19;20.08;;;6.43;;
20411;SDS011;10365;52.578;8.138;2022-10-23T07:14:49;14.52;;;5.63;;
20411;SDS011;10365;52.578;8.138;2022-10-23T07:17:15;14.90;;;6.25;;
20411;SDS011;10365;52.578;8.138;2022-10-23T07:19:40;12.82;;;6.10;;
20411;SDS011;10365;52.578;8.138;2022-10-23T07:22:09;9.75;;;5.57;;
20411;SDS011;10365;52.578;8.138;2022-10-23T07:24:40;13.93;;;6.50;;
20411;SDS011;10365;52.578;8.138;2022-10-23T07:27:16;14.90;;;6.32;;
20411;SDS011;10365;52.578;8.138;2022-10-23T07:29:42;13.55;;;6.53;;
20411;SDS011;10365;52.578;8.138;2022-10-23T07:32:07;16.40;;;6.78;;
20411;SDS011;10365;52.578;8.138;2022-10-23T07:34:39;15.68;;;6.63;;
20411;SDS011;10365;52.578;8.138;2022-10-23T07:37:21;19.67;;;7.32;;
20411;SDS011;10365;52.578;8.138;2022-10-23T07:39:46;21.65;;;7.88;;
20411;SDS011;10365;52.578;8.138;2022-10-23T07:42:12;16.23;;;7.10;;
20411;SDS011;10365;52.578;8.138;2022-10-23T07:44:40;15.38;;;6.72;;
20411;SDS011;10365;52.578;8.138;2022-10-23T07:47:05;13.20;;;6.75;;
20411;SDS011;10365;52.578;8.138;2022-10-23T07:49:31;22.63;;;7.20;;
20411;SDS011;10365;52.578;8.138;2022-10-23T07:51:56;15.68;;;6.63;;
20411;SDS011;10365;52.578;8.138;2022-10-23T07:54:26;11.73;;;6.72;;
20411;SDS011;10365;52.578;8.138;2022-10-23T07:56:54;13.35;;;6.20;;
20411;SDS011;10365;52.578;8.138;2022-10-23T07:59:23;12.30;;;6.00;;
20411;SDS011;10365;52.578;8.138;2022-10-23T08:01:51;16.98;;;6.63;;
20411;SDS011;10365;52.578;8.138;2022-10-23T08:04:20;13.32;;;6.97;;
20411;SDS011;10365;52.578;8.138;2022-10-23T08:06:59;17.95;;;7.50;;
20411;SDS011;10365;52.578;8.138;2022-10-23T08:09:27;20.90;;;8.10;;
20411;SDS011;10365;52.578;8.138;2022-10-23T08:11:52;11.15;;;6.72;;
20411;SDS011;10365;52.578;8.138;2022-10-23T08:14:20;16.63;;;7.40;;
20411;SDS011;10365;52.578;8.138;2022-10-23T08:16:46;17.80;;;6.00;;
20411;SDS011;10365;52.578;8.138;2022-10-23T08:19:14;20.48;;;5.13;;
20411;SDS011;10365;52.578;8.138;2022-10-23T08:21:40;16.83;;;4.30;;
20411;SDS011;10365;52.578;8.138;2022-10-23T08:24:09;7.28;;;4.10;;
20411;SDS011;10365;52.578;8.138;2022-10-23T08:26:38;13.90;;;3.38;;
20411;SDS011;10365;52.578;8.138;2022-10-23T08:29:04;10.25;;;3.40;;
20411;SDS011;10365;52.578;8.138;2022-10-23T08:31:30;12.68;;;3.28;;
20411;SDS011;10365;52.578;8.138;2022-10-23T08:34:22;7.68;;;3.35;;
20411;SDS011;10365;52.578;8.138;2022-10-23T08:36:49;7.68;;;3.00;;
20411;SDS011;10365;52.578;8.138;2022-10-23T08:39:14;7.93;;;2.50;;
20411;SDS011;10365;52.578;8.138;2022-10-23T08:41:53;5.32;;;2.58;;
20411;SDS011;10365;52.578;8.138;2022-10-23T08:46:45;5.70;;;2.60;;
20411;SDS011;10365;52.578;8.138;2022-10-23T08:49:54;8.43;;;2.42;;
20411;SDS011;10365;52.578;8.138;2022-10-23T08:52:24;3.92;;;1.80;;
20411;SDS011;10365;52.578;8.138;2022-10-23T08:57:31;8.27;;;2.35;;
20411;SDS011;10365;52.578;8.138;2022-10-23T09:00:00;6.97;;;2.22;;
20411;SDS011;10365;52.578;8.138;2022-10-23T09:02:29;5.22;;;2.03;;
20411;SDS011;10365;52.578;8.138;2022-10-23T09:04:56;7.93;;;2.20;;
20411;SDS011;10365;52.578;8.138;2022-10-23T09:12:14;6.20;;;1.83;;
20411;SDS011;10365;52.578;8.138;2022-10-23T09:17:29;7.15;;;1.83;;
20411;SDS011;10365;52.578;8.138;2022-10-23T09:22:30;7.85;;;1.77;;
20411;SDS011;10365;52.578;8.138;2022-10-23T09:24:56;9.68;;;2.13;;
20411;SDS011;10365;52.578;8.138;2022-10-23T09:27:21;6.35;;;2.08;;
20411;SDS011;10365;52.578;8.138;2022-10-23T09:29:55;7.15;;;2.97;;
20411;SDS011;10365;52.578;8.138;2022-10-23T09:32:36;8.25;;;2.90;;
20411;SDS011;10365;52.578;8.138;2022-10-23T09:35:02;8.38;;;2.20;;
20411;SDS011;10365;52.578;8.138;2022-10-23T09:37:29;6.38;;;1.75;;
20411;SDS011;10365;52.578;8.138;2022-10-23T09:42:48;6.10;;;2.30;;
20411;SDS011;10365;52.578;8.138;2022-10-23T09:48:03;7.25;;;2.20;;
20411;SDS011;10365;52.578;8.138;2022-10-23T09:50:28;8.60;;;1.60;;
20411;SDS011;10365;52.578;8.138;2022-10-23T09:52:53;7.75;;;2.25;;
20411;SDS011;10365;52.578;8.138;2022-10-23T09:55:23;5.25;;;1.73;;
20411;SDS011;10365;52.578;8.138;2022-10-23T09:57:49;8.63;;;1.98;;
20411;SDS011;10365;52.578;8.138;2022-10-23T10:00:16;7.90;;;1.90;;
20411;SDS011;10365;52.578;8.138;2022-10-23T10:02:43;10.20;;;2.00;;
20411;SDS011;10365;52.578;8.138;2022-10-23T10:05:28;9.00;;;2.05;;
20411;SDS011;10365;52.578;8.138;2022-10-23T10:07:59;14.07;;;2.90;;
20411;SDS011;10365;52.578;8.138;2022-10-23T10:10:28;9.95;;;2.80;;
20411;SDS011;10365;52.578;8.138;2022-10-23T10:13:00;9.68;;;2.83;;
20411;SDS011;10365;52.578;8.138;2022-10-23T10:15:36;8.65;;;2.78;;
20411;SDS011;10365;52.578;8.138;2022-10-23T10:23:11;12.15;;;2.67;;
20411;SDS011;10365;52.578;8.138;2022-10-23T10:30:54;10.50;;;2.03;;
20411;SDS011;10365;52.578;8.138;2022-10-23T10:33:28;9.43;;;2.53;;
20411;SDS011;10365;52.578;8.138;2022-10-23T10:36:15;7.65;;;2.78;;
20411;SDS011;10365;52.578;8.138;2022-10-23T10:38:58;5.93;;;2.00;;
20411;SDS011;10365;52.578;8.138;2022-10-23T10:49:04;7.85;;;3.03;;
20411;SDS011;10365;52.578;8.138;2022-10-23T10:56:49;8.88;;;2.53;;
20411;SDS011;10365;52.578;8.138;2022-10-23T10:59:26;7.22;;;3.05;;
20411;SDS011;10365;52.578;8.138;2022-10-23T11:02:04;7.90;;;2.85;;
20411;SDS011;10365;52.578;8.138;2022-10-23T11:07:26;11.63;;;3.63;;
20411;SDS011;10365;52.578;8.138;2022-10-23T11:09:55;9.07;;;5.30;;
20411;SDS011;10365;52.578;8.138;2022-10-23T11:12:23;10.85;;;3.50;;
20411;SDS011;10365;52.578;8.138;2022-10-23T11:14:50;5.10;;;2.88;;
20411;SDS011;10365;52.578;8.138;2022-10-23T11:27:26;4.53;;;3.10;;
20411;SDS011;10365;52.578;8.138;2022-10-23T11:35:13;10.45;;;2.80;;
20411;SDS011;10365;52.578;8.138;2022-10-23T11:37:43;7.35;;;2.33;;
20411;SDS011;10365;52.578;8.138;2022-10-23T11:53:24;26.55;;;14.95;;
20411;SDS011;10365;52.578;8.138;2022-10-23T11:55:59;64.32;;;26.80;;
20411;SDS011;10365;52.578;8.138;2022-10-23T11:58:39;22.92;;;9.68;;
20411;SDS011;10365;52.578;8.138;2022-10-23T12:06:38;8.15;;;3.95;;
20411;SDS011;10365;52.578;8.138;2022-10-23T12:09:06;7.10;;;3.28;;
20411;SDS011;10365;52.578;8.138;2022-10-23T12:11:39;6.32;;;3.00;;
20411;SDS011;10365;52.578;8.138;2022-10-23T12:14:29;10.98;;;2.80;;
20411;SDS011;10365;52.578;8.138;2022-10-23T12:16:51;6.57;;;2.53;;
20411;SDS011;10365;52.578;8.138;2022-10-23T12:19:18;5.85;;;2.72;;
20411;SDS011;10365;52.578;8.138;2022-10-23T12:21:44;6.47;;;2.47;;
20411;SDS011;10365;52.578;8.138;2022-10-23T12:24:20;7.55;;;2.53;;
20411;SDS011;10365;52.578;8.138;2022-10-23T12:27:01;18.67;;;10.18;;
20411;SDS011;10365;52.578;8.138;2022-10-23T12:29:42;8.07;;;3.63;;
20411;SDS011;10365;52.578;8.138;2022-10-23T12:37:34;5.70;;;2.65;;
20411;SDS011;10365;52.578;8.138;2022-10-23T12:40:05;8.93;;;2.80;;
20411;SDS011;10365;52.578;8.138;2022-10-23T12:42:31;8.18;;;2.25;;
20411;SDS011;10365;52.578;8.138;2022-10-23T12:44:57;11.82;;;2.47;;
20411;SDS011;10365;52.578;8.138;2022-10-23T12:47:22;5.22;;;2.38;;
20411;SDS011;10365;52.578;8.138;2022-10-23T12:49:48;6.47;;;2.58;;
20411;SDS011;10365;52.578;8.138;2022-10-23T12:52:14;6.80;;;2.20;;
20411;SDS011;10365;52.578;8.138;2022-10-23T12:54:40;6.88;;;1.98;;
20411;SDS011;10365;52.578;8.138;2022-10-23T12:57:22;9.15;;;2.45;;
20411;SDS011;10365;52.578;8.138;2022-10-23T12:59:50;4.82;;;1.80;;
20411;SDS011;10365;52.578;8.138;2022-10-23T13:02:27;10.95;;;2.28;;
20411;SDS011;10365;52.578;8.138;2022-10-23T13:04:53;7.25;;;2.38;;
20411;SDS011;10365;52.578;8.138;2022-10-23T13:07:20;8.77;;;2.30;;
20411;SDS011;10365;52.578;8.138;2022-10-23T13:09:46;9.18;;;1.95;;
20411;SDS011;10365;52.578;8.138;2022-10-23T13:12:21;7.50;;;1.92;;
20411;SDS011;10365;52.578;8.138;2022-10-23T13:17:43;6.20;;;1.80;;
20411;SDS011;10365;52.578;8.138;2022-10-23T13:22:40;2.58;;;1.55;;
20411;SDS011;10365;52.578;8.138;2022-10-23T13:27:50;8.27;;;1.70;;
20411;SDS011;10365;52.578;8.138;2022-10-23T13:32:53;9.38;;;2.22;;
20411;SDS011;10365;52.578;8.138;2022-10-23T13:35:20;3.85;;;1.60;;
20411;SDS011;10365;52.578;8.138;2022-10-23T13:37:45;6.70;;;1.40;;
20411;SDS011;10365;52.578;8.138;2022-10-23T13:42:44;8.82;;;1.52;;
20411;SDS011;10365;52.578;8.138;2022-10-23T13:45:13;10.65;;;1.73;;
20411;SDS011;10365;52.578;8.138;2022-10-23T13:47:40;10.13;;;1.60;;
20411;SDS011;10365;52.578;8.138;2022-10-23T13:50:05;3.58;;;1.73;;
20411;SDS011;10365;52.578;8.138;2022-10-23T13:52:35;4.22;;;1.80;;
20411;SDS011;10365;52.578;8.138;2022-10-23T13:55:00;3.90;;;1.60;;
20411;SDS011;10365;52.578;8.138;2022-10-23T13:57:26;6.30;;;1.75;;
20411;SDS011;10365;52.578;8.138;2022-10-23T13:59:51;4.15;;;1.90;;
20411;SDS011;10365;52.578;8.138;2022-10-23T14:02:18;7.13;;;1.95;;
20411;SDS011;10365;52.578;8.138;2022-10-23T14:04:43;5.45;;;1.70;;
20411;SDS011;10365;52.578;8.138;2022-10-23T14:07:10;5.28;;;2.08;;
20411;SDS011;10365;52.578;8.138;2022-10-23T14:09:35;7.78;;;2.30;;
20411;SDS011;10365;52.578;8.138;2022-10-23T14:12:00;4.70;;;1.92;;
20411;SDS011;10365;52.578;8.138;2022-10-23T14:14:26;12.50;;;4.47;;
20411;SDS011;10365;52.578;8.138;2022-10-23T14:16:51;13.80;;;5.97;;
20411;SDS011;10365;52.578;8.138;2022-10-23T14:19:17;22.63;;;10.45;;
20411;SDS011;10365;52.578;8.138;2022-10-23T14:21:42;30.48;;;11.57;;
20411;SDS011;10365;52.578;8.138;2022-10-23T14:24:08;17.38;;;7.80;;
20411;SDS011;10365;52.578;8.138;2022-10-23T14:26:33;23.70;;;11.82;;
20411;SDS011;10365;52.578;8.138;2022-10-23T14:28:59;20.52;;;6.32;;
20411;SDS011;10365;52.578;8.138;2022-10-23T14:31:24;9.15;;;2.95;;
20411;SDS011;10365;52.578;8.138;2022-10-23T14:33:51;8.80;;;5.20;;
20411;SDS011;10365;52.578;8.138;2022-10-23T14:36:16;5.53;;;3.67;;
20411;SDS011;10365;52.578;8.138;2022-10-23T14:38:42;5.63;;;2.47;;
20411;SDS011;10365;52.578;8.138;2022-10-23T14:41:11;6.40;;;2.10;;
20411;SDS011;10365;52.578;8.138;2022-10-23T14:43:36;6.60;;;2.38;;
20411;SDS011;10365;52.578;8.138;2022-10-23T14:46:12;8.40;;;2.42;;
20411;SDS011;10365;52.578;8.138;2022-10-23T14:48:38;8.57;;;4.43;;
20411;SDS011;10365;52.578;8.138;2022-10-23T14:51:04;5.43;;;3.47;;
20411;SDS011;10365;52.578;8.138;2022-10-23T14:53:30;7.90;;;5.00;;
20411;SDS011;10365;52.578;8.138;2022-10-23T14:55:59;5.80;;;2.20;;
20411;SDS011;10365;52.578;8.138;2022-10-23T14:58:25;5.95;;;2.00;;
20411;SDS011;10365;52.578;8.138;2022-10-23T15:00:57;6.75;;;1.55;;
20411;SDS011;10365;52.578;8.138;2022-10-23T15:03:22;5.57;;;1.40;;
20411;SDS011;10365;52.578;8.138;2022-10-23T15:05:48;8.23;;;3.33;;
20411;SDS011;10365;52.578;8.138;2022-10-23T15:08:13;24.52;;;14.18;;
20411;SDS011;10365;52.578;8.138;2022-10-23T15:10:38;15.98;;;8.63;;
20411;SDS011;10365;52.578;8.138;2022-10-23T15:13:03;7.95;;;3.58;;
20411;SDS011;10365;52.578;8.138;2022-10-23T15:15:29;10.10;;;5.88;;
20411;SDS011;10365;52.578;8.138;2022-10-23T15:17:54;7.18;;;2.45;;
20411;SDS011;10365;52.578;8.138;2022-10-23T15:20:19;5.32;;;1.55;;
20411;SDS011;10365;52.578;8.138;2022-10-23T15:22:45;5.57;;;2.05;;
20411;SDS011;10365;52.578;8.138;2022-10-23T15:25:10;5.85;;;2.70;;
20411;SDS011;10365;52.578;8.138;2022-10-23T15:27:35;8.77;;;2.50;;
20411;SDS011;10365;52.578;8.138;2022-10-23T15:30:01;5.13;;;2.25;;
20411;SDS011;10365;52.578;8.138;2022-10-23T15:32:26;10.77;;;2.40;;
20411;SDS011;10365;52.578;8.138;2022-10-23T15:34:51;4.13;;;1.35;;
20411;SDS011;10365;52.578;8.138;2022-10-23T15:37:17;3.50;;;1.30;;
20411;SDS011;10365;52.578;8.138;2022-10-23T15:39:43;3.60;;;1.42;;
20411;SDS011;10365;52.578;8.138;2022-10-23T15:42:08;8.13;;;1.42;;
20411;SDS011;10365;52.578;8.138;2022-10-23T15:44:34;7.05;;;1.20;;
20411;SDS011;10365;52.578;8.138;2022-10-23T15:46:59;3.33;;;1.13;;
20411;SDS011;10365;52.578;8.138;2022-10-23T15:49:25;2.78;;;1.05;;
20411;SDS011;10365;52.578;8.138;2022-10-23T15:51:53;5.90;;;1.60;;
20411;SDS011;10365;52.578;8.138;2022-10-23T15:54:19;11.35;;;2.00;;
20411;SDS011;10365;52.578;8.138;2022-10-23T15:56:45;7.10;;;1.60;;
20411;SDS011;10365;52.578;8.138;2022-10-23T15:59:11;5.55;;;1.50;;
20411;SDS011;10365;52.578;8.138;2022-10-23T16:01:36;7.18;;;1.70;;
20411;SDS011;10365;52.578;8.138;2022-10-23T16:04:02;8.05;;;2.63;;
20411;SDS011;10365;52.578;8.138;2022-10-23T16:06:27;7.95;;;3.05;;
20411;SDS011;10365;52.578;8.138;2022-10-23T16:08:52;5.78;;;2.20;;
20411;SDS011;10365;52.578;8.138;2022-10-23T16:11:22;7.82;;;2.00;;
20411;SDS011;10365;52.578;8.138;2022-10-23T16:13:48;5.50;;;1.85;;
20411;SDS011;10365;52.578;8.138;2022-10-23T16:16:13;5.95;;;1.63;;
20411;SDS011;10365;52.578;8.138;2022-10-23T16:18:39;3.05;;;1.40;;
20411;SDS011;10365;52.578;8.138;2022-10-23T16:21:04;3.45;;;1.20;;
20411;SDS011;10365;52.578;8.138;2022-10-23T16:23:30;6.30;;;1.85;;
20411;SDS011;10365;52.578;8.138;2022-10-23T16:26:00;7.05;;;1.50;;
20411;SDS011;10365;52.578;8.138;2022-10-23T16:28:25;3.00;;;1.40;;
20411;SDS011;10365;52.578;8.138;2022-10-23T16:30:50;4.40;;;1.63;;
20411;SDS011;10365;52.578;8.138;2022-10-23T16:33:16;2.53;;;1.73;;
20411;SDS011;10365;52.578;8.138;2022-10-23T16:35:41;5.05;;;1.50;;
20411;SDS011;10365;52.578;8.138;2022-10-23T16:38:13;3.33;;;1.42;;
20411;SDS011;10365;52.578;8.138;2022-10-23T16:40:39;8.45;;;1.50;;
20411;SDS011;10365;52.578;8.138;2022-10-23T16:43:36;7.80;;;3.83;;
20411;SDS011;10365;52.578;8.138;2022-10-23T16:46:19;11.02;;;3.38;;
20411;SDS011;10365;52.578;8.138;2022-10-23T16:48:45;10.82;;;4.97;;
20411;SDS011;10365;52.578;8.138;2022-10-23T16:51:11;26.05;;;11.43;;
20411;SDS011;10365;52.578;8.138;2022-10-23T16:53:37;22.80;;;10.73;;